Time;durP1;ratioP1;P1;durP2;ratioP2;P2;SDS_P1;SDS_P2;PMS_P1;PMS_P2;Temp;Humidity;BMP_temperature;BMP_pressure;BME280_temperature;BME280_humidity;BME280_pressure;Samples;Min_cycle;Max_cycle;Signal;HPM_P1;HPM_P2
2023/12/23 00:00:15;;;;;;;;;;;4.90;99.90;;;;;;4953433;28;19927;-56
2023/12/23 00:02:41;;;;;;;;;;;4.80;99.90;;;;;;4961684;28;19926;-57
2023/12/23 00:05:07;;;;;;;;;;;4.80;99.90;;;;;;4928157;28;19977;-58
2023/12/23 00:07:33;;;;;;;;;;;4.80;99.90;;;;;;4940891;28;20470;-57
2023/12/23 00:09:58;;;;;;;;;;;4.80;99.90;;;;;;4938487;28;19918;-57
2023/12/23 00:12:24;;;;;;;;;;;4.70;99.90;;;;;;4944276;28;19995;-57
2023/12/23 00:14:49;;;;;;;;;;;4.80;99.90;;;;;;4955565;28;20226;-57
2023/12/23 00:17:15;;;;;;;;;;;4.70;99.90;;;;;;4961895;28;20373;-58
2023/12/23 00:19:41;;;;;;;;;;;4.70;99.90;;;;;;4959829;28;19960;-58
2023/12/23 00:22:06;;;;;;;;;;;4.60;99.90;;;;;;4963657;28;19926;-58
2023/12/23 00:24:32;;;;;;;;;;;4.70;99.90;;;;;;4960230;28;19929;-57
2023/12/23 00:26:57;;;;;;;;;;;4.70;99.90;;;;;;4958626;28;20336;-58
2023/12/23 00:29:24;;;;;;;;;;;4.60;99.90;;;;;;4959854;28;19918;-58
2023/12/23 00:31:50;;;;;;;;;;;4.70;99.90;;;;;;4959871;28;19922;-58
2023/12/23 00:34:15;;;;;;;;;;;4.70;99.90;;;;;;4962279;28;20278;-57
2023/12/23 00:36:41;;;;;;;;;;;4.70;99.90;;;;;;4962056;28;19929;-58
2023/12/23 00:39:07;;;;;;;;;;;4.60;99.90;;;;;;4963468;28;20373;-58
2023/12/23 00:41:32;;;;;;;;;;;4.60;99.90;;;;;;4956432;28;19921;-57
2023/12/23 00:43:58;;;;;;;;;;;4.60;99.90;;;;;;4945509;28;19922;-57
2023/12/23 00:46:24;;;;;;;;;;;4.60;99.90;;;;;;4937901;28;20385;-58
2023/12/23 00:48:49;;;;;;;;;;;4.60;99.90;;;;;;4960502;28;19968;-58
2023/12/23 00:51:15;;;;;;;;;;;4.60;99.90;;;;;;4962806;28;19921;-58
2023/12/23 00:53:40;;;;;;;;;;;4.60;99.90;;;;;;4938131;28;19921;-57
2023/12/23 00:56:06;;;;;;;;;;;4.60;99.90;;;;;;4960801;28;20206;-58
2023/12/23 00:58:32;;;;;;;;;;;4.60;99.90;;;;;;4953114;28;19928;-57
2023/12/23 01:00:57;;;;;;;;;;;4.60;99.90;;;;;;4962144;28;19973;-58
2023/12/23 01:03:23;;;;;;;;;;;4.70;99.90;;;;;;4960294;28;19917;-58
2023/12/23 01:05:48;;;;;;;;;;;4.70;99.90;;;;;;4963151;28;19929;-58
2023/12/23 01:08:14;;;;;;;;;;;4.70;99.90;;;;;;4962464;28;20024;-57
2023/12/23 01:10:40;;;;;;;;;;;4.70;99.90;;;;;;4942527;28;20060;-56
2023/12/23 01:13:05;;;;;;;;;;;4.80;99.90;;;;;;4964672;28;19918;-58
2023/12/23 01:15:31;;;;;;;;;;;4.80;99.90;;;;;;4960341;28;20016;-58
2023/12/23 01:17:56;;;;;;;;;;;4.90;99.90;;;;;;4960968;28;19922;-58
2023/12/23 01:20:22;;;;;;;;;;;4.80;99.90;;;;;;4961658;28;19922;-58
2023/12/23 01:22:47;;;;;;;;;;;4.90;99.90;;;;;;4960056;28;19922;-58
2023/12/23 01:25:13;;;;;;;;;;;4.80;99.90;;;;;;4939535;28;19929;-58
2023/12/23 01:27:39;;;;;;;;;;;4.90;99.90;;;;;;4944420;28;19933;-57
2023/12/23 01:30:05;;;;;;;;;;;4.90;99.90;;;;;;4959705;28;19965;-56
2023/12/23 01:32:30;;;;;;;;;;;4.90;99.90;;;;;;4955868;28;19922;-57
2023/12/23 01:34:56;;;;;;;;;;;5.10;99.90;;;;;;4956173;28;20464;-57
2023/12/23 01:37:22;;;;;;;;;;;5.00;99.90;;;;;;4957800;28;19925;-56
2023/12/23 01:39:47;;;;;;;;;;;5.10;99.90;;;;;;4957523;28;19917;-58
2023/12/23 01:42:13;;;;;;;;;;;5.10;99.90;;;;;;4956672;28;19922;-58
2023/12/23 01:44:39;;;;;;;;;;;5.10;99.90;;;;;;4936321;28;20048;-58
2023/12/23 01:47:05;;;;;;;;;;;5.20;99.90;;;;;;4951586;28;19934;-58
2023/12/23 01:49:31;;;;;;;;;;;5.20;99.90;;;;;;4955440;28;19925;-58
2023/12/23 01:51:58;;;;;;;;;;;5.20;99.90;;;;;;4952048;28;19922;-58
2023/12/23 01:54:23;;;;;;;;;;;5.20;99.90;;;;;;4956016;28;19968;-57
2023/12/23 01:56:50;;;;;;;;;;;5.30;99.90;;;;;;4946089;28;20008;-57
2023/12/23 01:59:16;;;;;;;;;;;5.30;99.90;;;;;;4939917;28;20356;-57
2023/12/23 02:01:42;;;;;;;;;;;5.30;99.90;;;;;;4937904;28;20793;-58
2023/12/23 02:04:08;;;;;;;;;;;5.30;99.90;;;;;;4940724;28;19926;-58
2023/12/23 02:06:34;;;;;;;;;;;5.30;99.90;;;;;;4955641;28;20424;-58
2023/12/23 02:09:01;;;;;;;;;;;5.40;99.90;;;;;;4946310;28;19925;-57
2023/12/23 02:11:51;;;;;;;;;;;5.40;99.90;;;;;;4958217;28;19921;-58
2023/12/23 02:14:23;;;;;;;;;;;5.40;99.90;;;;;;4955480;28;19926;-56
2023/12/23 02:16:50;;;;;;;;;;;5.50;99.90;;;;;;4941890;28;19921;-58
2023/12/23 02:19:15;;;;;;;;;;;5.50;99.90;;;;;;4958122;28;19926;-58
2023/12/23 02:21:41;;;;;;;;;;;5.50;99.90;;;;;;4959840;28;19922;-57
2023/12/23 02:24:06;;;;;;;;;;;5.50;99.90;;;;;;4954852;28;19922;-56
2023/12/23 02:26:33;;;;;;;;;;;5.50;99.90;;;;;;4952550;28;20269;-58
2023/12/23 02:29:01;;;;;;;;;;;5.40;99.90;;;;;;4924826;28;20060;-58
2023/12/23 02:31:26;;;;;;;;;;;5.40;99.90;;;;;;4954189;28;20488;-58
2023/12/23 02:33:52;;;;;;;;;;;5.40;99.90;;;;;;4954269;28;19944;-59
2023/12/23 02:36:21;;;;;;;;;;;5.40;99.90;;;;;;4954685;28;20336;-58
2023/12/23 02:38:47;;;;;;;;;;;5.40;99.90;;;;;;4952529;28;19984;-57
2023/12/23 02:41:13;;;;;;;;;;;5.40;99.90;;;;;;4949143;28;20348;-57
2023/12/23 02:43:38;;;;;;;;;;;5.40;99.90;;;;;;4950530;28;19922;-58
2023/12/23 02:46:04;;;;;;;;;;;5.40;99.90;;;;;;4936753;28;19933;-58
2023/12/23 02:48:29;;;;;;;;;;;5.40;99.90;;;;;;4951623;28;19958;-57
2023/12/23 02:50:55;;;;;;;;;;;5.40;99.90;;;;;;4953696;28;20381;-58
2023/12/23 02:53:21;;;;;;;;;;;5.40;99.90;;;;;;4940558;28;19927;-58
2023/12/23 02:55:46;;;;;;;;;;;5.40;99.90;;;;;;4957438;28;20028;-58
2023/12/23 02:58:12;;;;;;;;;;;5.40;99.90;;;;;;4940575;28;19918;-58
2023/12/23 03:00:37;;;;;;;;;;;5.40;99.90;;;;;;4939112;28;20389;-57
2023/12/23 03:03:03;;;;;;;;;;;5.30;99.90;;;;;;4955463;28;19922;-58
2023/12/23 03:05:28;;;;;;;;;;;5.30;99.90;;;;;;4954947;28;19931;-56
2023/12/23 03:07:54;;;;;;;;;;;5.30;99.90;;;;;;4913570;28;19930;-58
2023/12/23 03:10:20;;;;;;;;;;;5.30;99.90;;;;;;4941931;28;20428;-57
2023/12/23 03:12:45;;;;;;;;;;;5.30;99.90;;;;;;4958468;28;20404;-59
2023/12/23 03:15:11;;;;;;;;;;;5.30;99.90;;;;;;4958470;28;20454;-58
2023/12/23 03:17:36;;;;;;;;;;;5.20;99.90;;;;;;4962190;28;19925;-59
2023/12/23 03:20:02;;;;;;;;;;;5.20;99.90;;;;;;4942247;28;20313;-58
2023/12/23 03:22:28;;;;;;;;;;;5.20;99.90;;;;;;4940021;28;19918;-58
2023/12/23 03:24:54;;;;;;;;;;;5.20;99.90;;;;;;4937691;28;20381;-57
2023/12/23 03:27:19;;;;;;;;;;;5.20;99.90;;;;;;4926950;28;19949;-58
2023/12/23 03:29:45;;;;;;;;;;;5.20;99.90;;;;;;4954979;28;19926;-58
2023/12/23 03:32:11;;;;;;;;;;;5.20;99.90;;;;;;4958123;28;19926;-58
2023/12/23 03:34:36;;;;;;;;;;;5.10;99.90;;;;;;4961984;28;19926;-58
2023/12/23 03:37:02;;;;;;;;;;;5.20;99.90;;;;;;4958931;28;19929;-56
2023/12/23 03:39:27;;;;;;;;;;;5.10;99.90;;;;;;4956038;28;19922;-57
2023/12/23 03:41:53;;;;;;;;;;;5.10;99.90;;;;;;4937362;28;19926;-58
2023/12/23 03:44:18;;;;;;;;;;;5.10;99.90;;;;;;4955034;28;19926;-59
2023/12/23 03:46:44;;;;;;;;;;;5.20;99.90;;;;;;4940562;28;19937;-58
2023/12/23 03:49:10;;;;;;;;;;;5.10;99.90;;;;;;4956345;28;19929;-59
2023/12/23 03:51:35;;;;;;;;;;;5.10;99.90;;;;;;4957432;28;19985;-57
2023/12/23 03:54:01;;;;;;;;;;;5.00;99.90;;;;;;4948604;28;19922;-58
2023/12/23 03:56:26;;;;;;;;;;;5.10;99.90;;;;;;4943024;28;20369;-59
2023/12/23 03:58:52;;;;;;;;;;;5.10;99.90;;;;;;4950092;28;19926;-59
2023/12/23 04:01:17;;;;;;;;;;;5.10;99.90;;;;;;4955608;28;19968;-56
2023/12/23 04:03:43;;;;;;;;;;;5.10;99.90;;;;;;4953560;28;19937;-58
2023/12/23 04:06:12;;;;;;;;;;;5.00;99.90;;;;;;4954981;28;20004;-58
2023/12/23 04:08:39;;;;;;;;;;;5.00;99.90;;;;;;4947414;28;20033;-58
2023/12/23 04:11:05;;;;;;;;;;;5.00;99.90;;;;;;4947381;28;19972;-58
2023/12/23 04:13:30;;;;;;;;;;;5.00;99.90;;;;;;4948551;28;19925;-59
2023/12/23 04:15:56;;;;;;;;;;;5.00;99.90;;;;;;4939573;28;19929;-57
2023/12/23 04:18:21;;;;;;;;;;;4.90;99.90;;;;;;4954990;28;19925;-58
2023/12/23 04:20:47;;;;;;;;;;;5.00;99.90;;;;;;4944055;28;19966;-57
2023/12/23 04:23:13;;;;;;;;;;;5.00;99.90;;;;;;4950891;28;19922;-59
2023/12/23 04:25:38;;;;;;;;;;;5.00;99.90;;;;;;4940156;28;19941;-56
2023/12/23 04:28:04;;;;;;;;;;;5.00;99.90;;;;;;4957070;28;19973;-58
2023/12/23 04:30:29;;;;;;;;;;;5.00;99.90;;;;;;4943701;28;19922;-57
2023/12/23 04:32:55;;;;;;;;;;;5.00;99.90;;;;;;4931944;28;20423;-57
2023/12/23 04:35:21;;;;;;;;;;;5.00;99.90;;;;;;4944600;28;19930;-58
2023/12/23 04:37:46;;;;;;;;;;;5.00;99.90;;;;;;4945586;28;19922;-58
2023/12/23 04:40:12;;;;;;;;;;;5.00;99.90;;;;;;4938182;28;20398;-58
2023/12/23 04:42:38;;;;;;;;;;;5.00;99.90;;;;;;4937483;28;20056;-58
2023/12/23 04:45:03;;;;;;;;;;;5.00;99.90;;;;;;4957966;28;19922;-59
2023/12/23 04:47:29;;;;;;;;;;;5.00;99.90;;;;;;4957546;28;20001;-58
2023/12/23 04:49:54;;;;;;;;;;;5.00;99.90;;;;;;4938200;28;20422;-58
2023/12/23 04:52:20;;;;;;;;;;;5.00;99.90;;;;;;4953441;28;19933;-58
2023/12/23 04:54:45;;;;;;;;;;;5.00;99.90;;;;;;4954773;28;19921;-57
2023/12/23 04:57:11;;;;;;;;;;;5.00;99.90;;;;;;4952926;28;19964;-58
2023/12/23 04:59:37;;;;;;;;;;;5.00;99.90;;;;;;4955119;28;19922;-59
2023/12/23 05:02:03;;;;;;;;;;;5.00;99.90;;;;;;4955964;28;20010;-57
2023/12/23 05:04:29;;;;;;;;;;;4.90;99.90;;;;;;4919297;28;19926;-59
2023/12/23 05:06:56;;;;;;;;;;;4.90;99.90;;;;;;4957922;28;19926;-58
2023/12/23 05:09:22;;;;;;;;;;;4.90;99.90;;;;;;4947242;28;20383;-57
2023/12/23 05:11:48;;;;;;;;;;;5.00;99.90;;;;;;4953485;28;19936;-57
2023/12/23 05:14:13;;;;;;;;;;;4.90;99.90;;;;;;4951484;28;19926;-58
2023/12/23 05:16:39;;;;;;;;;;;4.90;99.90;;;;;;4950539;28;19933;-59
2023/12/23 05:19:04;;;;;;;;;;;4.90;99.90;;;;;;4949315;28;20056;-59
2023/12/23 05:21:30;;;;;;;;;;;4.90;99.90;;;;;;4950424;28;20452;-56
2023/12/23 05:23:55;;;;;;;;;;;4.90;99.90;;;;;;4922537;28;19926;-56
2023/12/23 05:26:21;;;;;;;;;;;4.90;99.90;;;;;;4946660;28;20447;-58
2023/12/23 05:28:47;;;;;;;;;;;4.90;99.90;;;;;;4952939;28;20033;-57
2023/12/23 05:31:13;;;;;;;;;;;4.90;99.90;;;;;;4944615;28;19925;-58
2023/12/23 05:33:38;;;;;;;;;;;4.90;99.90;;;;;;4955348;28;20748;-56
2023/12/23 05:36:04;;;;;;;;;;;4.90;99.90;;;;;;4932617;28;19934;-58
2023/12/23 05:38:30;;;;;;;;;;;4.90;99.90;;;;;;4933847;28;19928;-58
2023/12/23 05:40:56;;;;;;;;;;;4.90;99.90;;;;;;4957791;28;20087;-57
2023/12/23 05:43:22;;;;;;;;;;;4.90;99.90;;;;;;4946599;28;19921;-58
2023/12/23 05:45:47;;;;;;;;;;;4.90;99.90;;;;;;4951859;28;19938;-58
2023/12/23 05:48:13;;;;;;;;;;;4.90;99.90;;;;;;4953686;28;19928;-57
2023/12/23 05:50:38;;;;;;;;;;;4.90;99.90;;;;;;4943653;28;19930;-58
2023/12/23 05:53:04;;;;;;;;;;;4.90;99.90;;;;;;4941817;28;20045;-57
2023/12/23 05:55:29;;;;;;;;;;;4.90;99.90;;;;;;4932633;28;19922;-58
2023/12/23 05:57:55;;;;;;;;;;;4.90;99.90;;;;;;4932073;28;19972;-57
2023/12/23 06:00:21;;;;;;;;;;;4.80;99.90;;;;;;4926941;28;20039;-57
2023/12/23 06:02:46;;;;;;;;;;;4.80;99.90;;;;;;4939794;28;19929;-57
2023/12/23 06:05:12;;;;;;;;;;;4.80;99.90;;;;;;4919615;28;20392;-59
2023/12/23 06:07:37;;;;;;;;;;;4.80;99.90;;;;;;4939330;28;19926;-58
2023/12/23 06:10:04;;;;;;;;;;;4.80;99.90;;;;;;4933755;28;20391;-57
2023/12/23 06:12:29;;;;;;;;;;;4.80;99.90;;;;;;4938000;28;20526;-58
2023/12/23 06:14:57;;;;;;;;;;;4.80;99.90;;;;;;4934188;28;19922;-57
2023/12/23 06:17:23;;;;;;;;;;;4.80;99.90;;;;;;4941524;28;20340;-58
2023/12/23 06:19:48;;;;;;;;;;;4.70;99.90;;;;;;4953974;28;19926;-56
2023/12/23 06:22:14;;;;;;;;;;;4.80;99.90;;;;;;4945696;28;19950;-57
2023/12/23 06:24:39;;;;;;;;;;;4.80;99.90;;;;;;4940653;28;19921;-58
2023/12/23 06:27:05;;;;;;;;;;;4.70;99.90;;;;;;4954173;28;20472;-58
2023/12/23 06:29:30;;;;;;;;;;;4.70;99.90;;;;;;4961459;28;19929;-57
2023/12/23 06:31:57;;;;;;;;;;;4.70;99.90;;;;;;4961992;28;19934;-58
2023/12/23 06:34:23;;;;;;;;;;;4.70;99.90;;;;;;4947806;28;19922;-57
2023/12/23 06:36:48;;;;;;;;;;;4.70;99.90;;;;;;4958597;28;19933;-58
2023/12/23 06:39:14;;;;;;;;;;;4.60;99.90;;;;;;4955343;28;19928;-58
2023/12/23 06:41:39;;;;;;;;;;;4.70;99.90;;;;;;4959575;28;19969;-58
2023/12/23 06:44:05;;;;;;;;;;;4.60;99.90;;;;;;4954542;28;19922;-57
2023/12/23 06:46:30;;;;;;;;;;;4.60;99.90;;;;;;4945693;28;19941;-57
2023/12/23 06:48:56;;;;;;;;;;;4.70;99.90;;;;;;4959371;28;20052;-57
2023/12/23 06:51:21;;;;;;;;;;;4.60;99.90;;;;;;4939227;28;19926;-56
2023/12/23 06:53:48;;;;;;;;;;;4.60;99.90;;;;;;4961300;28;19976;-58
2023/12/23 06:56:13;;;;;;;;;;;4.60;99.90;;;;;;4961869;28;19968;-57
2023/12/23 06:58:39;;;;;;;;;;;4.60;99.90;;;;;;4962317;28;20061;-58
2023/12/23 07:01:04;;;;;;;;;;;4.60;99.90;;;;;;4937875;28;20364;-58
2023/12/23 07:03:30;;;;;;;;;;;4.50;99.90;;;;;;4961633;28;19926;-57
2023/12/23 07:05:56;;;;;;;;;;;4.50;99.90;;;;;;4961414;28;20377;-57
2023/12/23 07:08:22;;;;;;;;;;;4.50;99.90;;;;;;4960173;28;20270;-58
2023/12/23 07:10:48;;;;;;;;;;;4.50;99.90;;;;;;4964771;28;19929;-58
2023/12/23 07:13:14;;;;;;;;;;;4.60;99.90;;;;;;4960816;28;19926;-57
2023/12/23 07:15:39;;;;;;;;;;;4.50;99.90;;;;;;4956187;28;20396;-56
2023/12/23 07:18:06;;;;;;;;;;;4.50;99.90;;;;;;4955659;28;20021;-58
2023/12/23 07:20:32;;;;;;;;;;;4.50;99.90;;;;;;4962232;28;20887;-57
2023/12/23 07:22:58;;;;;;;;;;;4.50;99.90;;;;;;4936170;28;20115;-58
2023/12/23 07:25:23;;;;;;;;;;;4.50;99.90;;;;;;4937261;28;20417;-57
2023/12/23 07:27:49;;;;;;;;;;;4.50;99.90;;;;;;4954789;28;19925;-58
2023/12/23 07:30:14;;;;;;;;;;;4.60;99.90;;;;;;4923554;28;20254;-57
2023/12/23 07:32:40;;;;;;;;;;;4.60;99.90;;;;;;4933776;28;19989;-58
2023/12/23 07:35:06;;;;;;;;;;;4.60;99.90;;;;;;4951069;28;20928;-57
2023/12/23 07:37:31;;;;;;;;;;;4.60;99.90;;;;;;4960034;28;20343;-58
2023/12/23 07:39:57;;;;;;;;;;;4.60;99.90;;;;;;4960824;28;19922;-56
2023/12/23 07:42:23;;;;;;;;;;;4.60;99.90;;;;;;4961581;28;20343;-57
2023/12/23 07:44:48;;;;;;;;;;;4.60;99.90;;;;;;4943440;28;20008;-57
2023/12/23 07:47:14;;;;;;;;;;;4.60;99.90;;;;;;4951458;28;19933;-57
2023/12/23 07:49:39;;;;;;;;;;;4.60;99.90;;;;;;4950320;28;20211;-57
2023/12/23 07:52:06;;;;;;;;;;;4.60;99.90;;;;;;4951137;28;20437;-58
2023/12/23 07:54:32;;;;;;;;;;;4.60;99.90;;;;;;4955191;28;20388;-58
2023/12/23 07:56:58;;;;;;;;;;;4.60;99.90;;;;;;4941348;28;19949;-58
2023/12/23 07:59:23;;;;;;;;;;;4.60;99.90;;;;;;4943740;28;19922;-58
2023/12/23 08:01:49;;;;;;;;;;;4.60;99.90;;;;;;4943296;28;19918;-56
2023/12/23 08:04:15;;;;;;;;;;;4.60;99.90;;;;;;4946446;28;20569;-58
2023/12/23 08:06:41;;;;;;;;;;;4.60;99.90;;;;;;4956218;28;19963;-58
2023/12/23 08:09:07;;;;;;;;;;;4.60;99.90;;;;;;4939865;28;19949;-56
2023/12/23 08:11:34;;;;;;;;;;;4.60;99.90;;;;;;4944012;28;19931;-58
2023/12/23 08:14:00;;;;;;;;;;;4.60;99.90;;;;;;4939702;28;20089;-58
2023/12/23 08:16:26;;;;;;;;;;;4.60;99.90;;;;;;4911900;28;19952;-58
2023/12/23 08:18:52;;;;;;;;;;;4.70;99.90;;;;;;4943472;28;20408;-57
2023/12/23 08:21:17;;;;;;;;;;;4.70;99.90;;;;;;4958647;28;20326;-58
2023/12/23 08:23:43;;;;;;;;;;;4.70;99.90;;;;;;4961942;28;19933;-57
2023/12/23 08:26:09;;;;;;;;;;;4.60;99.90;;;;;;4960641;28;19926;-58
2023/12/23 08:28:35;;;;;;;;;;;4.70;99.90;;;;;;4944483;28;19981;-56
2023/12/23 08:31:03;;;;;;;;;;;4.70;99.90;;;;;;4943239;28;19937;-57
2023/12/23 08:33:29;;;;;;;;;;;4.70;99.90;;;;;;4953422;28;19930;-58
2023/12/23 08:35:56;;;;;;;;;;;4.70;99.90;;;;;;4959509;28;19925;-58
2023/12/23 08:38:22;;;;;;;;;;;4.70;99.90;;;;;;4961659;28;19921;-58
2023/12/23 08:40:48;;;;;;;;;;;4.70;99.90;;;;;;4958337;28;19980;-58
2023/12/23 08:43:14;;;;;;;;;;;4.70;99.90;;;;;;4959718;28;20024;-57
2023/12/23 08:45:39;;;;;;;;;;;4.70;99.90;;;;;;4953080;28;20111;-56
2023/12/23 08:48:05;;;;;;;;;;;4.70;99.90;;;;;;4939656;28;20069;-58
2023/12/23 08:50:31;;;;;;;;;;;4.70;99.90;;;;;;4963297;28;19945;-58
2023/12/23 08:52:56;;;;;;;;;;;4.70;99.90;;;;;;4961681;28;19952;-58
2023/12/23 08:55:22;;;;;;;;;;;4.70;99.90;;;;;;4956652;28;20012;-57
2023/12/23 08:57:48;;;;;;;;;;;4.70;99.90;;;;;;4957514;28;19926;-58
2023/12/23 09:00:13;;;;;;;;;;;4.70;99.90;;;;;;4958279;28;19969;-57
2023/12/23 09:02:40;;;;;;;;;;;4.70;99.90;;;;;;4962416;28;19961;-58
2023/12/23 09:05:05;;;;;;;;;;;4.80;99.90;;;;;;4951392;28;20012;-58
2023/12/23 09:07:31;;;;;;;;;;;4.80;99.90;;;;;;4955617;28;20288;-58
2023/12/23 09:09:57;;;;;;;;;;;4.80;99.90;;;;;;4957521;28;19926;-58
2023/12/23 09:12:22;;;;;;;;;;;4.80;99.90;;;;;;4959652;28;20332;-57
2023/12/23 09:14:51;;;;;;;;;;;4.80;99.90;;;;;;4955279;28;19929;-57
2023/12/23 09:17:16;;;;;;;;;;;4.80;99.90;;;;;;4957817;28;19965;-57
2023/12/23 09:19:42;;;;;;;;;;;4.80;99.90;;;;;;4940505;28;20359;-59
2023/12/23 09:22:08;;;;;;;;;;;4.90;99.90;;;;;;4920863;28;19918;-56
2023/12/23 09:24:36;;;;;;;;;;;4.90;99.90;;;;;;4949286;28;19930;-58
2023/12/23 09:27:02;;;;;;;;;;;4.90;99.90;;;;;;4944833;28;20251;-56
2023/12/23 09:29:28;;;;;;;;;;;4.90;99.90;;;;;;4915012;28;20736;-58
2023/12/23 09:31:54;;;;;;;;;;;4.90;99.90;;;;;;4954461;28;20385;-57
2023/12/23 09:34:23;;;;;;;;;;;4.90;99.90;;;;;;4928579;28;19933;-58
2023/12/23 09:36:48;;;;;;;;;;;4.90;99.90;;;;;;4954973;28;19922;-58
2023/12/23 09:39:14;;;;;;;;;;;4.90;99.90;;;;;;4952312;28;19928;-56
2023/12/23 09:41:40;;;;;;;;;;;4.90;99.90;;;;;;4949737;28;20377;-58
2023/12/23 09:44:06;;;;;;;;;;;4.90;99.90;;;;;;4957317;28;20465;-57
2023/12/23 09:46:32;;;;;;;;;;;4.90;99.90;;;;;;4955349;28;19928;-58
2023/12/23 09:48:58;;;;;;;;;;;5.00;99.90;;;;;;4955898;28;19929;-59
2023/12/23 09:51:25;;;;;;;;;;;5.00;99.90;;;;;;4959365;28;19931;-58
2023/12/23 09:53:55;;;;;;;;;;;5.10;99.90;;;;;;4960004;28;19929;-57
2023/12/23 09:56:20;;;;;;;;;;;5.00;99.90;;;;;;4936069;28;19925;-56
2023/12/23 09:58:46;;;;;;;;;;;5.00;99.90;;;;;;4936038;28;20290;-56
2023/12/23 10:01:12;;;;;;;;;;;5.00;99.90;;;;;;4940316;28;20296;-57
2023/12/23 10:03:37;;;;;;;;;;;5.00;99.90;;;;;;4950048;28;20020;-56
2023/12/23 10:06:03;;;;;;;;;;;5.10;99.90;;;;;;4938643;28;19930;-58
2023/12/23 10:08:29;;;;;;;;;;;5.00;99.90;;;;;;4960177;28;20682;-58
2023/12/23 10:10:54;;;;;;;;;;;5.00;99.90;;;;;;4952663;28;19929;-56
2023/12/23 10:13:20;;;;;;;;;;;5.10;99.90;;;;;;4958496;28;19926;-56
2023/12/23 10:15:46;;;;;;;;;;;5.10;99.90;;;;;;4954651;28;20000;-57
2023/12/23 10:18:12;;;;;;;;;;;5.10;99.90;;;;;;4951919;28;21033;-57
2023/12/23 10:20:38;;;;;;;;;;;5.10;99.90;;;;;;4958166;28;19918;-58
2023/12/23 10:23:03;;;;;;;;;;;5.20;99.90;;;;;;4954558;28;20521;-55
2023/12/23 10:25:29;;;;;;;;;;;5.10;99.90;;;;;;4953823;28;19972;-57
2023/12/23 10:27:58;;;;;;;;;;;5.10;99.90;;;;;;4959231;28;19937;-55
2023/12/23 10:30:24;;;;;;;;;;;5.10;99.90;;;;;;4944550;28;19922;-56
2023/12/23 10:32:52;;;;;;;;;;;5.10;99.90;;;;;;4962954;28;20000;-57
2023/12/23 10:35:19;;;;;;;;;;;5.10;99.90;;;;;;4936299;28;19929;-57
2023/12/23 10:37:45;;;;;;;;;;;5.20;99.90;;;;;;4956052;28;19972;-57
2023/12/23 10:40:18;;;;;;;;;;;5.20;99.90;;;;;;4960350;28;19929;-55
2023/12/23 10:42:44;;;;;;;;;;;5.20;99.90;;;;;;4928542;28;19926;-55
2023/12/23 10:45:11;;;;;;;;;;;5.30;99.90;;;;;;4931244;28;19933;-55
2023/12/23 10:47:37;;;;;;;;;;;5.30;99.90;;;;;;4945854;28;19926;-57
2023/12/23 10:50:03;;;;;;;;;;;5.30;99.90;;;;;;4953547;28;20417;-56
2023/12/23 10:52:29;;;;;;;;;;;5.30;99.90;;;;;;4948759;28;19922;-57
2023/12/23 10:54:55;;;;;;;;;;;5.30;99.90;;;;;;4953254;28;19944;-58
2023/12/23 10:57:22;;;;;;;;;;;5.40;99.90;;;;;;4961389;28;20440;-56
2023/12/23 10:59:48;;;;;;;;;;;5.40;99.90;;;;;;4959990;28;19921;-57
2023/12/23 11:02:14;;;;;;;;;;;5.40;99.90;;;;;;4956596;28;19936;-57
2023/12/23 11:04:42;;;;;;;;;;;5.40;99.90;;;;;;4958113;28;19932;-57
2023/12/23 11:07:09;;;;;;;;;;;5.40;99.90;;;;;;4953172;28;19929;-57
2023/12/23 11:09:35;;;;;;;;;;;5.50;99.90;;;;;;4905116;28;20081;-57
2023/12/23 11:12:00;;;;;;;;;;;5.40;99.90;;;;;;4939211;28;19922;-57
2023/12/23 11:14:26;;;;;;;;;;;5.40;99.90;;;;;;4947181;28;19965;-57
2023/12/23 11:16:55;;;;;;;;;;;5.40;99.90;;;;;;4949246;28;19977;-56
2023/12/23 11:19:21;;;;;;;;;;;5.50;99.90;;;;;;4956212;28;19930;-57
2023/12/23 11:21:46;;;;;;;;;;;5.40;99.90;;;;;;4930068;28;19930;-55
2023/12/23 11:24:31;;;;;;;;;;;5.40;99.90;;;;;;4933655;28;20906;-57
2023/12/23 11:26:57;;;;;;;;;;;5.50;99.90;;;;;;4944997;28;19933;-56
2023/12/23 11:29:22;;;;;;;;;;;5.50;99.90;;;;;;4950698;28;19917;-55
2023/12/23 11:31:49;;;;;;;;;;;5.50;99.90;;;;;;4937562;28;19926;-56
2023/12/23 11:34:15;;;;;;;;;;;5.50;99.90;;;;;;4957095;28;19926;-56
2023/12/23 11:36:42;;;;;;;;;;;5.50;99.90;;;;;;4954983;28;20419;-57
2023/12/23 11:39:11;;;;;;;;;;;5.50;99.90;;;;;;4956397;28;19922;-56
2023/12/23 11:41:38;;;;;;;;;;;5.50;99.90;;;;;;4927419;28;19955;-56
2023/12/23 11:44:04;;;;;;;;;;;5.60;99.90;;;;;;4956408;28;20517;-57
2023/12/23 11:46:31;;;;;;;;;;;5.60;99.90;;;;;;4962993;28;20063;-56
2023/12/23 11:48:56;;;;;;;;;;;5.60;99.90;;;;;;4961406;28;20085;-56
2023/12/23 11:51:23;;;;;;;;;;;5.60;99.90;;;;;;4945788;28;19928;-57
2023/12/23 11:53:49;;;;;;;;;;;5.60;99.90;;;;;;4963567;28;19929;-57
2023/12/23 11:56:15;;;;;;;;;;;5.60;99.90;;;;;;4960063;28;19918;-56
2023/12/23 11:58:41;;;;;;;;;;;5.60;99.90;;;;;;4956761;28;19926;-57
2023/12/23 12:01:07;;;;;;;;;;;5.70;99.90;;;;;;4961519;28;19921;-57
2023/12/23 12:03:32;;;;;;;;;;;5.70;99.90;;;;;;4963114;28;19925;-58
2023/12/23 12:05:58;;;;;;;;;;;5.70;99.90;;;;;;4970834;28;20001;-57
2023/12/23 12:08:24;;;;;;;;;;;5.70;99.90;;;;;;4965335;28;20400;-56
2023/12/23 12:10:50;;;;;;;;;;;5.70;99.90;;;;;;4966293;28;19930;-57
2023/12/23 12:13:16;;;;;;;;;;;5.70;99.90;;;;;;4964322;28;19952;-57
2023/12/23 12:15:42;;;;;;;;;;;5.70;99.90;;;;;;4963269;28;19968;-57
2023/12/23 12:18:08;;;;;;;;;;;5.70;99.90;;;;;;4948692;28;19978;-54
2023/12/23 12:20:33;;;;;;;;;;;5.80;99.90;;;;;;4953331;28;19918;-56
2023/12/23 12:23:01;;;;;;;;;;;5.80;99.90;;;;;;4926550;28;19926;-56
2023/12/23 12:25:28;;;;;;;;;;;5.80;99.90;;;;;;4954410;28;19949;-56
2023/12/23 12:27:54;;;;;;;;;;;5.80;99.90;;;;;;4956089;28;20021;-56
2023/12/23 12:30:21;;;;;;;;;;;5.80;99.90;;;;;;4951404;28;20719;-56
2023/12/23 12:32:47;;;;;;;;;;;5.80;99.90;;;;;;4941085;28;20601;-57
2023/12/23 12:35:13;;;;;;;;;;;5.90;99.90;;;;;;4952062;28;20527;-56
2023/12/23 12:37:39;;;;;;;;;;;5.80;99.90;;;;;;4939608;28;20329;-56
2023/12/23 12:40:05;;;;;;;;;;;5.80;99.90;;;;;;4942680;28;19957;-57
2023/12/23 12:42:34;;;;;;;;;;;5.90;99.90;;;;;;4949872;28;20411;-57
2023/12/23 12:45:01;;;;;;;;;;;5.80;99.90;;;;;;4929779;28;19925;-57
2023/12/23 12:47:28;;;;;;;;;;;5.90;99.90;;;;;;4931324;28;19997;-56
2023/12/23 12:49:58;;;;;;;;;;;5.90;99.90;;;;;;4936325;28;19956;-57
2023/12/23 12:52:23;;;;;;;;;;;5.80;99.90;;;;;;4949743;28;19926;-57
2023/12/23 12:54:49;;;;;;;;;;;5.80;99.90;;;;;;4933587;28;20403;-56
2023/12/23 12:57:14;;;;;;;;;;;5.90;99.90;;;;;;4955467;28;19924;-57
2023/12/23 12:59:40;;;;;;;;;;;5.80;99.90;;;;;;4948365;28;19933;-56
2023/12/23 13:02:07;;;;;;;;;;;5.80;99.90;;;;;;4956425;28;20484;-57
2023/12/23 13:04:32;;;;;;;;;;;5.80;99.90;;;;;;4953270;28;19922;-56
2023/12/23 13:06:58;;;;;;;;;;;5.90;99.90;;;;;;4960464;28;20454;-57
2023/12/23 13:09:24;;;;;;;;;;;5.90;99.90;;;;;;4947172;28;19926;-56
2023/12/23 13:11:49;;;;;;;;;;;5.90;99.90;;;;;;4952264;28;19925;-58
2023/12/23 13:14:15;;;;;;;;;;;5.90;99.90;;;;;;4958194;28;19921;-56
2023/12/23 13:16:40;;;;;;;;;;;5.90;99.90;;;;;;4961824;28;20452;-56
2023/12/23 13:19:06;;;;;;;;;;;6.00;99.90;;;;;;4960468;28;19922;-56
2023/12/23 13:21:32;;;;;;;;;;;6.00;99.90;;;;;;4938295;28;19922;-56
2023/12/23 13:23:57;;;;;;;;;;;6.00;99.90;;;;;;4964734;28;19926;-55
2023/12/23 13:26:23;;;;;;;;;;;6.00;99.90;;;;;;4934557;28;19933;-57
2023/12/23 13:28:48;;;;;;;;;;;6.00;99.90;;;;;;4933950;28;19934;-56
2023/12/23 13:31:14;;;;;;;;;;;6.10;99.90;;;;;;4961526;28;20065;-56
2023/12/23 13:33:40;;;;;;;;;;;6.00;99.90;;;;;;4958498;28;20648;-57
2023/12/23 13:36:07;;;;;;;;;;;6.10;99.90;;;;;;4958407;28;19922;-56
2023/12/23 13:38:32;;;;;;;;;;;6.10;99.90;;;;;;4962693;28;19926;-56
2023/12/23 13:40:58;;;;;;;;;;;6.10;99.90;;;;;;4958291;28;19922;-56
2023/12/23 13:43:24;;;;;;;;;;;6.10;99.90;;;;;;4961169;28;19922;-56
2023/12/23 13:45:49;;;;;;;;;;;6.10;99.90;;;;;;4945925;28;19926;-56
2023/12/23 13:48:15;;;;;;;;;;;6.20;99.90;;;;;;4928096;28;19934;-56
2023/12/23 13:50:40;;;;;;;;;;;6.20;99.90;;;;;;4964220;28;19922;-56
2023/12/23 13:53:06;;;;;;;;;;;6.20;99.90;;;;;;4962916;28;19922;-53
2023/12/23 13:55:32;;;;;;;;;;;6.30;99.90;;;;;;4962242;28;20277;-56
2023/12/23 13:57:57;;;;;;;;;;;6.30;99.90;;;;;;4963653;28;19925;-56
2023/12/23 14:00:23;;;;;;;;;;;6.30;99.90;;;;;;4913777;28;20293;-58
2023/12/23 14:02:48;;;;;;;;;;;6.30;99.90;;;;;;4959083;28;20060;-57
2023/12/23 14:05:14;;;;;;;;;;;6.40;99.90;;;;;;4961964;28;19929;-57
2023/12/23 14:07:40;;;;;;;;;;;6.50;99.90;;;;;;4951175;28;19930;-57
2023/12/23 14:10:06;;;;;;;;;;;6.50;99.90;;;;;;4942619;28;20297;-56
2023/12/23 14:12:31;;;;;;;;;;;6.70;99.90;;;;;;4963133;28;20348;-56
2023/12/23 14:14:57;;;;;;;;;;;6.80;99.90;;;;;;4954945;28;19926;-57
2023/12/23 14:17:23;;;;;;;;;;;6.90;99.90;;;;;;4960739;28;20364;-56
2023/12/23 14:19:48;;;;;;;;;;;7.00;99.90;;;;;;4961825;28;20409;-56
2023/12/23 14:22:14;;;;;;;;;;;7.10;99.90;;;;;;4963224;28;20292;-56